createdAt,value
2023-04-23T00:00:54.986Z,99595.97
2023-04-23T00:03:25.346Z,99592.06
2023-04-23T00:05:56.873Z,99591.31
2023-04-23T00:08:25.945Z,99597.81
2023-04-23T00:10:55.336Z,99600.09
2023-04-23T00:13:24.485Z,99594.91
2023-04-23T00:15:53.406Z,99589.09
2023-04-23T00:18:22.081Z,99587.03
2023-04-23T00:20:50.486Z,99587.78
2023-04-23T00:23:20.444Z,99586.88
2023-04-23T00:25:49.756Z,99587.63
2023-04-23T00:28:19.551Z,99594.50
2023-04-23T00:30:49.220Z,99597.06
2023-04-23T00:33:17.710Z,99587.47
2023-04-23T00:35:46.449Z,99593.25
2023-04-23T00:38:14.935Z,99595.97
2023-04-23T00:40:44.794Z,99589.63
2023-04-23T00:43:13.714Z,99580.25
2023-04-23T00:45:42.179Z,99598.91
2023-04-23T00:48:11.328Z,99604.50
2023-04-23T00:50:39.718Z,99604.13
2023-04-23T00:53:08.549Z,99603.94
2023-04-23T00:55:37.345Z,99605.25
2023-04-23T00:58:07.714Z,99594.34
2023-04-23T01:00:40.718Z,99592.13
2023-04-23T01:03:09.778Z,99593.75
2023-04-23T01:05:38.305Z,99595.34
2023-04-23T01:08:07.377Z,99591.91
2023-04-23T01:10:35.960Z,99582.56
2023-04-23T01:13:05.803Z,99593.50
2023-04-23T01:15:34.171Z,99591.09
2023-04-23T01:18:04.698Z,99586.63
2023-04-23T01:20:33.738Z,99594.06
2023-04-23T01:23:04.352Z,99592.56
2023-04-23T01:25:32.902Z,99600.16
2023-04-23T01:28:01.406Z,99591.81
2023-04-23T01:30:30.976Z,99597.13
2023-04-23T01:33:00.091Z,99598.00
2023-04-23T01:35:29.016Z,99603.00
2023-04-23T01:38:00.788Z,99603.84
2023-04-23T01:40:30.901Z,99604.72
2023-04-23T01:43:00.418Z,99611.19
2023-04-23T01:45:28.861Z,99599.78
2023-04-23T01:47:57.379Z,99609.38
2023-04-23T01:50:27.777Z,99612.44
2023-04-23T01:52:56.213Z,99610.16
2023-04-23T01:55:24.770Z,99612.56
2023-04-23T01:57:54.633Z,99619.34
2023-04-23T02:00:23.373Z,99615.75
2023-04-23T02:02:53.816Z,99622.19
2023-04-23T02:05:22.807Z,99605.91
2023-04-23T02:07:52.838Z,99616.78
2023-04-23T02:10:21.424Z,99627.00
2023-04-23T02:12:49.856Z,99626.94
2023-04-23T02:15:20.082Z,99627.97
2023-04-23T02:17:51.214Z,99629.66
2023-04-23T02:20:20.613Z,99627.94
2023-04-23T02:22:50.638Z,99638.25
2023-04-23T02:25:21.963Z,99629.41
2023-04-23T02:27:50.764Z,99625.59
2023-04-23T02:30:20.776Z,99626.22
2023-04-23T02:32:50.175Z,99628.69
2023-04-23T02:35:19.131Z,99624.25
2023-04-23T02:37:47.610Z,99621.53
2023-04-23T02:40:16.036Z,99620.03
2023-04-23T02:42:44.451Z,99620.16
2023-04-23T02:45:13.249Z,99621.38
2023-04-23T02:47:43.015Z,99624.78
2023-04-23T02:50:12.054Z,99622.81
2023-04-23T02:52:40.530Z,99637.41
2023-04-23T02:55:10.811Z,99638.41
2023-04-23T02:57:39.668Z,99627.06
2023-04-23T03:00:12.333Z,99622.34
2023-04-23T03:02:45.029Z,99632.53
2023-04-23T03:05:13.827Z,99628.75
2023-04-23T03:07:42.984Z,99644.41
2023-04-23T03:10:12.024Z,99642.00
2023-04-23T03:12:40.722Z,99637.59
2023-04-23T03:15:11.612Z,99638.59
2023-04-23T03:17:40.104Z,99636.88
2023-04-23T03:20:12.105Z,99642.41
2023-04-23T03:22:41.974Z,99640.59
2023-04-23T03:25:11.192Z,99643.13
2023-04-23T03:27:40.802Z,99642.66
2023-04-23T03:30:11.045Z,99636.13
2023-04-23T03:32:40.321Z,99649.19
2023-04-23T03:35:11.169Z,99646.13
2023-04-23T03:37:43.284Z,99652.28
2023-04-23T03:40:12.539Z,99648.66
2023-04-23T03:42:42.776Z,99612.66
2023-04-23T03:45:16.745Z,99627.63
2023-04-23T03:47:46.112Z,99641.25
2023-04-23T03:50:17.496Z,99648.25
2023-04-23T03:52:48.604Z,99648.72
2023-04-23T03:55:30.577Z,99651.47
2023-04-23T03:58:01.725Z,99655.59
2023-04-23T04:00:38.392Z,99653.53
2023-04-23T04:03:06.900Z,99648.19
2023-04-23T04:05:37.348Z,99650.66
2023-04-23T04:08:06.395Z,99647.47
2023-04-23T04:10:34.877Z,99634.19
2023-04-23T04:13:03.302Z,99636.78
2023-04-23T04:15:33.032Z,99649.25
2023-04-23T04:18:01.660Z,99637.25
2023-04-23T04:20:30.142Z,99649.69
2023-04-23T04:22:59.958Z,99645.53
2023-04-23T04:25:28.952Z,99637.69
2023-04-23T04:27:58.339Z,99640.75
2023-04-23T04:30:27.369Z,99641.19
2023-04-23T04:32:56.067Z,99636.47
2023-04-23T04:35:24.649Z,99640.06
2023-04-23T04:37:54.181Z,99646.59
2023-04-23T04:40:24.082Z,99646.81
2023-04-23T04:42:52.977Z,99650.66
2023-04-23T04:45:21.361Z,99647.59
2023-04-23T04:47:49.863Z,99653.31
2023-04-23T04:50:18.333Z,99650.94
2023-04-23T04:52:46.761Z,99654.19
2023-04-23T04:55:15.172Z,99649.53
2023-04-23T04:57:44.941Z,99658.00
2023-04-23T05:00:26.704Z,99656.81
2023-04-23T05:02:55.889Z,99656.47
2023-04-23T05:05:26.396Z,99659.13
2023-04-23T05:07:55.414Z,99651.56
2023-04-23T05:10:23.802Z,99649.94
2023-04-23T05:12:53.556Z,99637.34
2023-04-23T05:15:21.940Z,99652.00
2023-04-23T05:17:53.349Z,99641.63
2023-04-23T05:20:22.855Z,99655.41
2023-04-23T05:22:51.239Z,99658.88
2023-04-23T05:25:19.565Z,99650.34
2023-04-23T05:27:48.010Z,99657.94
2023-04-23T05:30:17.858Z,99664.19
2023-04-23T05:32:46.296Z,99667.13
2023-04-23T05:35:14.771Z,99664.66
2023-04-23T05:37:43.368Z,99653.06
2023-04-23T05:40:12.901Z,99658.53
2023-04-23T05:42:41.373Z,99660.69
2023-04-23T05:45:11.208Z,99664.91
2023-04-23T05:47:40.980Z,99644.06
2023-04-23T05:50:11.675Z,99672.38
2023-04-23T05:52:40.096Z,99674.63
2023-04-23T05:55:10.205Z,99675.81
2023-04-23T05:57:39.843Z,99675.16
2023-04-23T06:00:11.841Z,99675.69
2023-04-23T06:02:44.484Z,99675.09
2023-04-23T06:05:13.508Z,99686.31
2023-04-23T06:07:42.285Z,99686.03
2023-04-23T06:10:12.593Z,99680.34
2023-04-23T06:12:42.370Z,99677.84
2023-04-23T06:15:11.759Z,99665.19
2023-04-23T06:17:40.431Z,99674.34
2023-04-23T06:20:11.975Z,99674.59
2023-04-23T06:22:40.546Z,99678.88
2023-04-23T06:25:10.347Z,99667.78
2023-04-23T06:27:38.764Z,99676.78
2023-04-23T06:30:14.903Z,99670.25
2023-04-23T06:32:43.395Z,99664.00
2023-04-23T06:35:13.240Z,99666.75
2023-04-23T06:37:41.567Z,99658.47
2023-04-23T06:40:11.331Z,99665.13
2023-04-23T06:42:39.665Z,99652.19
2023-04-23T06:45:18.002Z,99664.72
2023-04-23T06:47:46.455Z,99669.75
2023-04-23T06:50:16.604Z,99661.97
2023-04-23T06:52:44.945Z,99667.44
2023-04-23T06:55:13.877Z,99682.84
2023-04-23T06:57:42.225Z,99677.38
2023-04-23T07:00:13.064Z,99678.88
2023-04-23T07:02:43.727Z,99665.16
2023-04-23T07:05:12.137Z,99670.22
2023-04-23T07:07:43.460Z,99650.81
2023-04-23T07:10:15.016Z,99651.66
2023-04-23T07:12:45.454Z,99647.13
2023-04-23T07:15:13.814Z,99652.09
2023-04-23T07:17:42.250Z,99651.44
2023-04-23T07:20:11.219Z,99644.88
2023-04-23T07:22:41.322Z,99638.50
2023-04-23T07:25:10.434Z,99633.44
2023-04-23T07:27:38.884Z,99634.50
2023-04-23T07:30:09.315Z,99633.91
2023-04-23T07:32:37.764Z,99623.41
2023-04-23T07:35:07.443Z,99633.56
2023-04-23T07:37:35.793Z,99639.22
2023-04-23T07:40:08.442Z,99636.53
2023-04-23T07:42:37.100Z,99646.19
2023-04-23T07:45:07.289Z,99652.25
2023-04-23T07:47:36.530Z,99642.50
2023-04-23T07:50:05.421Z,99638.63
2023-04-23T07:52:33.797Z,99638.47
2023-04-23T07:55:05.024Z,99648.78
2023-04-23T07:57:33.388Z,99644.34
2023-04-23T08:00:02.426Z,99637.28
2023-04-23T08:02:40.597Z,99640.00
2023-04-23T08:05:10.353Z,99633.69
2023-04-23T08:07:39.393Z,99634.66
2023-04-23T08:10:10.802Z,99632.38
2023-04-23T08:12:39.400Z,99634.56
2023-04-23T08:15:09.131Z,99632.19
2023-04-23T08:17:41.620Z,99638.16
2023-04-23T08:20:11.018Z,99630.44
2023-04-23T08:22:39.435Z,99624.66
2023-04-23T08:25:10.771Z,99629.25
2023-04-23T08:27:39.173Z,99624.97
2023-04-23T08:30:09.629Z,99630.16
2023-04-23T08:32:39.780Z,99624.03
2023-04-23T08:35:09.606Z,99617.50
2023-04-23T08:37:39.063Z,99610.66
2023-04-23T08:40:10.897Z,99620.38
2023-04-23T08:42:47.090Z,99616.63
2023-04-23T08:45:15.849Z,99616.34
2023-04-23T08:47:44.796Z,99601.59
2023-04-23T08:50:16.448Z,99606.41
2023-04-23T08:52:54.961Z,99610.53
2023-04-23T08:55:25.659Z,99607.41
2023-04-23T08:57:54.394Z,99608.50
2023-04-23T09:00:26.347Z,99609.75
2023-04-23T09:02:55.244Z,99603.41
2023-04-23T09:05:33.996Z,99608.03
2023-04-23T09:08:02.900Z,99604.28
2023-04-23T09:10:32.867Z,99604.59
2023-04-23T09:13:01.457Z,99604.63
2023-04-23T09:15:30.000Z,99601.13
2023-04-23T09:17:59.461Z,99594.59
2023-04-23T09:20:29.247Z,99597.31
2023-04-23T09:22:57.634Z,99589.25
2023-04-23T09:25:27.073Z,99580.78
2023-04-23T09:28:01.421Z,99577.22
2023-04-23T09:30:29.803Z,99573.16
2023-04-23T09:32:58.229Z,99582.50
2023-04-23T09:35:29.427Z,99581.78
2023-04-23T09:37:57.900Z,99570.63
2023-04-23T09:40:29.080Z,99563.78
2023-04-23T09:42:58.887Z,99557.03
2023-04-23T09:45:27.221Z,99550.09
2023-04-23T09:47:57.604Z,99551.19
2023-04-23T09:50:35.016Z,99553.78
2023-04-23T09:53:04.194Z,99551.00
2023-04-23T09:55:37.463Z,99549.97
2023-04-23T09:58:11.765Z,99548.22
2023-04-23T10:00:41.716Z,99552.47
2023-04-23T10:03:11.943Z,99551.06
2023-04-23T10:05:56.296Z,99550.63
2023-04-23T10:08:29.741Z,99546.91
2023-04-23T10:11:10.145Z,99538.97
2023-04-23T10:13:48.236Z,99542.94
2023-04-23T10:16:23.391Z,99538.53
2023-04-23T10:18:56.993Z,99534.47
2023-04-23T10:21:36.741Z,99530.28
2023-04-23T10:24:15.903Z,99537.22
2023-04-23T10:26:45.509Z,99531.38
2023-04-23T10:29:17.353Z,99514.56
2023-04-23T10:31:47.377Z,99530.53
2023-04-23T10:34:17.491Z,99529.34
2023-04-23T10:36:45.886Z,99527.63
2023-04-23T10:39:24.021Z,99529.75
2023-04-23T10:41:58.750Z,99531.75
2023-04-23T10:44:56.521Z,99522.28
2023-04-23T10:47:23.640Z,99514.66
2023-04-23T10:49:52.936Z,99524.72
2023-04-23T10:52:23.785Z,99521.13
2023-04-23T10:55:00.878Z,99520.25
2023-04-23T10:57:29.474Z,99519.66
2023-04-23T10:59:59.653Z,99514.22
2023-04-23T11:02:44.431Z,99501.66
2023-04-23T11:05:12.955Z,99502.75
2023-04-23T11:07:41.334Z,99488.50
2023-04-23T11:10:14.926Z,99494.50
2023-04-23T11:12:45.390Z,99482.81
2023-04-23T11:15:17.052Z,99481.13
2023-04-23T11:18:03.567Z,99480.38
2023-04-23T11:20:32.022Z,99480.94
2023-04-23T11:23:00.385Z,99474.28
2023-04-23T11:25:30.589Z,99464.53
2023-04-23T11:27:59.901Z,99450.28
2023-04-23T11:30:32.039Z,99464.66
2023-04-23T11:33:02.309Z,99469.78
2023-04-23T11:35:39.595Z,99460.94
2023-04-23T11:38:10.587Z,99452.13
2023-04-23T11:40:40.491Z,99446.78
2023-04-23T11:43:09.598Z,99452.91
2023-04-23T11:45:39.425Z,99439.69
2023-04-23T11:48:10.059Z,99434.91
2023-04-23T11:50:39.105Z,99437.06
2023-04-23T11:53:10.410Z,99446.34
2023-04-23T11:55:43.942Z,99430.09
2023-04-23T11:58:12.306Z,99432.06
2023-04-23T12:00:42.095Z,99423.97
2023-04-23T12:03:10.758Z,99441.03
2023-04-23T12:05:43.673Z,99427.78
2023-04-23T12:08:16.193Z,99422.81
2023-04-23T12:10:47.386Z,99420.66
2023-04-23T12:13:17.192Z,99416.97
2023-04-23T12:15:48.939Z,99428.22
2023-04-23T12:18:17.836Z,99418.47
2023-04-23T12:20:46.922Z,99396.25
2023-04-23T12:23:15.306Z,99394.22
2023-04-23T12:25:43.631Z,99409.63
2023-04-23T12:28:12.088Z,99409.25
2023-04-23T12:30:45.868Z,99400.44
2023-04-23T12:33:15.652Z,99413.03
2023-04-23T12:35:46.443Z,99384.16
2023-04-23T12:38:25.866Z,99406.44
2023-04-23T12:40:55.574Z,99383.41
2023-04-23T12:43:24.726Z,99372.78
2023-04-23T12:45:53.566Z,99365.91
2023-04-23T12:48:23.367Z,99370.44
2023-04-23T12:50:51.733Z,99377.69
2023-04-23T12:53:20.640Z,99364.41
2023-04-23T12:55:50.209Z,99346.56
2023-04-23T12:58:18.577Z,99353.84
2023-04-23T13:00:47.418Z,99341.38
2023-04-23T13:03:17.540Z,99344.59
2023-04-23T13:05:48.071Z,99334.16
2023-04-23T13:08:16.569Z,99319.78
2023-04-23T13:10:45.043Z,99314.19
2023-04-23T13:13:13.332Z,99316.03
2023-04-23T13:15:41.795Z,99315.25
2023-04-23T13:18:10.173Z,99303.41
2023-04-23T13:20:38.517Z,99303.44
2023-04-23T13:23:08.897Z,99305.59
2023-04-23T13:25:37.291Z,99295.06
2023-04-23T13:28:05.785Z,99299.38
2023-04-23T13:30:34.201Z,99287.34
2023-04-23T13:33:02.602Z,99278.56
2023-04-23T13:35:31.286Z,99269.75
2023-04-23T13:38:00.558Z,99269.50
2023-04-23T13:40:30.319Z,99271.69
2023-04-23T13:42:58.631Z,99262.56
2023-04-23T13:45:27.872Z,99256.97
2023-04-23T13:47:56.405Z,99259.34
2023-04-23T13:50:24.895Z,99259.91
2023-04-23T13:52:53.200Z,99254.84
2023-04-23T13:55:21.576Z,99250.00
2023-04-23T13:57:51.410Z,99237.69
2023-04-23T14:00:19.999Z,99241.41
2023-04-23T14:02:48.410Z,99238.22
2023-04-23T14:05:16.867Z,99246.78
2023-04-23T14:07:45.518Z,99234.75
2023-04-23T14:10:15.077Z,99227.25
2023-04-23T14:12:43.492Z,99228.31
2023-04-23T14:15:13.575Z,99225.38
2023-04-23T14:17:43.279Z,99225.38
2023-04-23T14:20:12.785Z,99219.22
2023-04-23T14:22:42.115Z,99198.09
2023-04-23T14:25:16.771Z,99198.88
2023-04-23T14:27:48.161Z,99199.16
2023-04-23T14:30:21.132Z,99190.06
2023-04-23T14:32:50.514Z,99187.66
2023-04-23T14:35:21.263Z,99178.53
2023-04-23T14:37:55.128Z,99177.75
2023-04-23T14:40:23.749Z,99168.66
2023-04-23T14:42:53.713Z,99166.53
2023-04-23T14:45:24.822Z,99161.44
2023-04-23T14:47:53.280Z,99159.28
2023-04-23T14:50:22.316Z,99156.88
2023-04-23T14:52:52.192Z,99145.94
2023-04-23T14:55:20.729Z,99136.28
2023-04-23T14:57:49.066Z,99142.19
2023-04-23T15:00:18.881Z,99142.44
2023-04-23T15:02:48.850Z,99144.56
2023-04-23T15:05:17.310Z,99142.16
2023-04-23T15:07:45.640Z,99138.94
2023-04-23T15:10:14.246Z,99130.69
2023-04-23T15:12:56.879Z,99127.19
2023-04-23T15:15:43.844Z,99105.53
2023-04-23T15:18:16.930Z,99114.88
2023-04-23T15:20:46.118Z,99103.13
2023-04-23T15:23:14.506Z,99119.69
2023-04-23T15:25:42.802Z,99112.22
2023-04-23T15:28:11.208Z,99111.13
2023-04-23T15:30:40.799Z,99108.75
2023-04-23T15:33:09.185Z,99102.88
2023-04-23T15:35:38.846Z,99103.66
2023-04-23T15:38:07.184Z,99106.06
2023-04-23T15:40:42.114Z,99098.84
2023-04-23T15:43:13.516Z,99104.22
2023-04-23T15:45:42.655Z,99096.19
2023-04-23T15:48:11.432Z,99092.97
2023-04-23T15:50:41.418Z,99093.50
2023-04-23T15:53:10.034Z,99090.28
2023-04-23T15:55:39.186Z,99077.19
2023-04-23T15:58:07.957Z,99079.59
2023-04-23T16:00:36.346Z,99085.50
2023-04-23T16:03:06.573Z,99079.59
2023-04-23T16:05:36.242Z,99075.06
2023-04-23T16:08:06.019Z,99075.34
2023-04-23T16:10:34.716Z,99071.03
2023-04-23T16:13:03.878Z,99068.63
2023-04-23T16:15:32.301Z,99049.66
2023-04-23T16:18:00.893Z,99074.50
2023-04-23T16:20:29.645Z,99078.28
2023-04-23T16:22:57.973Z,99067.56
2023-04-23T16:25:27.819Z,99075.88
2023-04-23T16:27:56.949Z,99067.03
2023-04-23T16:30:25.726Z,99050.41
2023-04-23T16:32:54.357Z,99065.94
2023-04-23T16:35:23.196Z,99048.56
2023-04-23T16:37:52.069Z,99099.06
2023-04-23T16:40:21.507Z,99125.63
2023-04-23T16:42:51.187Z,99137.31
2023-04-23T16:45:23.067Z,99143.78
2023-04-23T16:47:51.824Z,99139.00
2023-04-23T16:50:20.409Z,99143.94
2023-04-23T16:52:48.886Z,99162.56
2023-04-23T16:55:17.389Z,99170.75
2023-04-23T16:57:45.782Z,99169.34
2023-04-23T17:00:16.658Z,99162.09
2023-04-23T17:02:45.272Z,99148.06
2023-04-23T17:05:13.599Z,99151.63
2023-04-23T17:07:43.968Z,99152.16
2023-04-23T17:10:13.817Z,99138.22
2023-04-23T17:12:42.239Z,99146.47
2023-04-23T17:15:11.914Z,99147.69
2023-04-23T17:17:41.680Z,99141.56
2023-04-23T17:20:10.648Z,99118.03
2023-04-23T17:22:39.047Z,99103.34
2023-04-23T17:25:08.928Z,99113.47
2023-04-23T17:27:37.294Z,99090.88
2023-04-23T17:30:07.358Z,99086.91
2023-04-23T17:32:35.799Z,99072.50
2023-04-23T17:35:10.466Z,99072.81
2023-04-23T17:37:39.276Z,99083.44
2023-04-23T17:40:10.775Z,99101.06
2023-04-23T17:42:39.155Z,99097.78
2023-04-23T17:45:08.816Z,99108.41
2023-04-23T17:47:37.668Z,99103.97
2023-04-23T17:50:11.613Z,99104.97
2023-04-23T17:52:41.029Z,99111.31
2023-04-23T17:55:10.240Z,99116.09
2023-04-23T17:57:38.611Z,99113.41
2023-04-23T18:00:12.229Z,99107.66
2023-04-23T18:02:41.851Z,99112.03
2023-04-23T18:05:13.899Z,99096.19
2023-04-23T18:07:44.386Z,99098.75
2023-04-23T18:10:13.274Z,99098.94
2023-04-23T18:12:41.772Z,99110.00
2023-04-23T18:15:12.424Z,99114.81
2023-04-23T18:17:40.964Z,99116.28
2023-04-23T18:20:12.681Z,99110.28
2023-04-23T18:22:42.269Z,99103.44
2023-04-23T18:25:11.467Z,99103.03
2023-04-23T18:27:39.932Z,99110.78
2023-04-23T18:30:09.961Z,99100.63
2023-04-23T18:32:44.462Z,99103.47
2023-04-23T18:35:14.344Z,99112.22
2023-04-23T18:37:49.168Z,99117.63
2023-04-23T18:40:17.510Z,99105.72
2023-04-23T18:42:46.001Z,99103.69
2023-04-23T18:45:14.467Z,99108.53
2023-04-23T18:47:50.239Z,99115.16
2023-04-23T18:50:44.570Z,99091.47
2023-04-23T18:53:12.921Z,99102.97
2023-04-23T18:55:41.247Z,99100.09
2023-04-23T18:58:09.651Z,99104.66
2023-04-23T19:00:38.057Z,99102.00
2023-04-23T19:03:15.336Z,99110.53
2023-04-23T19:05:49.588Z,99110.78
2023-04-23T19:08:18.017Z,99126.31
2023-04-23T19:10:46.570Z,99106.50
2023-04-23T19:13:14.876Z,99124.84
2023-04-23T19:15:43.246Z,99127.84
2023-04-23T19:18:11.893Z,99126.88
2023-04-23T19:20:40.231Z,99118.84
2023-04-23T19:23:09.990Z,99104.72
2023-04-23T19:25:38.489Z,99114.53
2023-04-23T19:28:06.896Z,99112.94
2023-04-23T19:30:35.383Z,99118.34
2023-04-23T19:33:03.768Z,99120.63
2023-04-23T19:35:32.234Z,99125.00
2023-04-23T19:38:00.677Z,99133.94
2023-04-23T19:40:30.821Z,99139.13
2023-04-23T19:42:59.311Z,99131.22
2023-04-23T19:45:30.049Z,99128.44
2023-04-23T19:47:58.732Z,99131.47
2023-04-23T19:50:27.882Z,99131.00
2023-04-23T19:52:56.243Z,99127.28
2023-04-23T19:55:27.113Z,99134.91
2023-04-23T19:57:58.519Z,99126.53
2023-04-23T20:00:29.984Z,99139.59
2023-04-23T20:02:58.495Z,99127.81
2023-04-23T20:05:27.922Z,99120.31
2023-04-23T20:07:57.047Z,99136.28
2023-04-23T20:10:29.135Z,99143.47
2023-04-23T20:12:59.885Z,99137.78
2023-04-23T20:15:28.346Z,99129.91
2023-04-23T20:17:56.991Z,99120.56
2023-04-23T20:20:25.562Z,99124.50
2023-04-23T20:22:53.957Z,99130.53
2023-04-23T20:25:25.580Z,99134.38
2023-04-23T20:27:58.186Z,99129.63
2023-04-23T20:30:27.084Z,99121.56
2023-04-23T20:32:55.445Z,99127.63
2023-04-23T20:35:23.954Z,99120.22
2023-04-23T20:37:54.591Z,99108.59
2023-04-23T20:40:23.216Z,99128.03
2023-04-23T20:42:52.889Z,99122.53
2023-04-23T20:45:23.432Z,99110.91
2023-04-23T20:47:51.812Z,99121.56
2023-04-23T20:50:20.355Z,99122.56
2023-04-23T20:52:48.788Z,99093.97
2023-04-23T20:55:17.169Z,99123.06
2023-04-23T20:57:45.630Z,99130.19
2023-04-23T21:00:14.907Z,99106.91
2023-04-23T21:02:44.829Z,99127.97
2023-04-23T21:05:14.041Z,99125.09
2023-04-23T21:07:44.478Z,99125.31
2023-04-23T21:10:13.103Z,99133.41
2023-04-23T21:12:43.431Z,99143.13
2023-04-23T21:15:13.270Z,99140.22
2023-04-23T21:17:42.126Z,99141.06
2023-04-23T21:20:12.508Z,99139.81
2023-04-23T21:22:40.874Z,99142.19
2023-04-23T21:25:09.950Z,99149.00
2023-04-23T21:27:38.561Z,99148.31
2023-04-23T21:30:12.728Z,99151.19
2023-04-23T21:32:41.125Z,99144.41
2023-04-23T21:35:11.680Z,99143.72
2023-04-23T21:37:40.057Z,99149.47
2023-04-23T21:40:10.846Z,99145.78
2023-04-23T21:42:39.257Z,99146.13
2023-04-23T21:45:09.140Z,99150.50
2023-04-23T21:47:37.555Z,99148.66
2023-04-23T21:50:09.487Z,99148.78
2023-04-23T21:52:39.395Z,99153.19
2023-04-23T21:55:10.082Z,99153.75
2023-04-23T21:57:40.020Z,99154.44
2023-04-23T22:00:13.959Z,99157.78
2023-04-23T22:02:46.681Z,99162.97
2023-04-23T22:05:20.078Z,99158.94
2023-04-23T22:07:52.887Z,99140.72
2023-04-23T22:10:23.103Z,99143.97
2023-04-23T22:12:52.013Z,99142.69
2023-04-23T22:15:21.258Z,99147.88
2023-04-23T22:17:50.551Z,99140.84
2023-04-23T22:20:23.686Z,99147.88
2023-04-23T22:22:54.372Z,99143.28
2023-04-23T22:25:22.824Z,99140.72
2023-04-23T22:27:51.179Z,99144.31
2023-04-23T22:30:19.542Z,99151.56
2023-04-23T22:32:47.953Z,99141.06
2023-04-23T22:35:16.687Z,99149.72
2023-04-23T22:37:45.238Z,99138.31
2023-04-23T22:40:14.981Z,99142.91
2023-04-23T22:42:43.333Z,99134.38
2023-04-23T22:45:12.181Z,99132.88
2023-04-23T22:47:40.773Z,99128.53
2023-04-23T22:50:10.257Z,99133.94
2023-04-23T22:52:38.590Z,99132.88
2023-04-23T22:55:08.708Z,99131.50
2023-04-23T22:57:38.757Z,99143.28
2023-04-23T23:00:11.166Z,99135.91
2023-04-23T23:02:40.089Z,99143.97
2023-04-23T23:05:09.707Z,99138.44
2023-04-23T23:07:38.576Z,99141.78
2023-04-23T23:10:09.549Z,99133.25
2023-04-23T23:12:40.199Z,99121.84
2023-04-23T23:15:10.107Z,99132.69
2023-04-23T23:17:38.684Z,99108.47
2023-04-23T23:20:09.014Z,99131.38
2023-04-23T23:22:41.165Z,99104.97
2023-04-23T23:25:10.966Z,99123.81
2023-04-23T23:27:40.732Z,99118.13
2023-04-23T23:30:10.892Z,99120.19
2023-04-23T23:32:39.341Z,99130.00
2023-04-23T23:35:09.283Z,99123.19
2023-04-23T23:37:37.732Z,99118.81
2023-04-23T23:40:08.040Z,99110.28
2023-04-23T23:42:36.507Z,99116.75
2023-04-23T23:45:07.626Z,99106.03
2023-04-23T23:47:36.198Z,99116.19
2023-04-23T23:50:04.768Z,99117.19
2023-04-23T23:52:33.369Z,99116.06
2023-04-23T23:55:01.762Z,99110.63
2023-04-23T23:57:30.174Z,99113.72
2023-04-23T23:59:58.542Z,99111.75
